Dart — OUOV2 — position and weather

sailwx.info

Track history (hours):
 
Tides and Currents Weather Stations Pressure Air Temp Water Temp Dewpoint Dewpoint Depression Visibility Wind Speed Wind Dir Waves Ship Positions

Dart

Last reported at 2016-Jun-25 13:32 UTC. Time now 2016-Jun-25 14:20 UTC.
Position N 51°42' E 004°36'.

Length 66 m; draft 3.8 m.

Type: Tanker. MMSI: 219416000.

Date/timePositionNaut miles runAvg speedWind from/ knotsBaromVisibWave heightAir tempDewpointWater temp
2016-Jun-25 13:32N 51°42' E 004°36'0 0.0
2016-Jun-25 12:29N 51°42' E 004°36'0 0.0
2016-Jun-25 11:32N 51°42' E 004°36'0 0.0
2016-Jun-25 10:32N 51°42' E 004°36'0 0.0
2016-Jun-25 09:32N 51°42' E 004°36'0 0.0
2016-Jun-25 08:29N 51°42' E 004°36'0 0.0
2016-Jun-25 07:32N 51°42' E 004°36'0 0.0
2016-Jun-25 06:32N 51°42' E 004°36'0 0.0
2016-Jun-25 05:32N 51°42' E 004°36'0 0.0
2016-Jun-25 04:32N 51°42' E 004°36'0 0.0
2016-Jun-25 03:32N 51°42' E 004°36'4 4.4
2016-Jun-25 02:33N 51°46' E 004°38'7 6.5
2016-Jun-25 01:34N 51°50' E 004°30'7 6.8
2016-Jun-25 00:33N 51°53' E 004°19'8 7.6
2016-Jun-24 23:34N 51°57' E 004°10'7 7.1
2016-Jun-24 22:33N 52°00' E 003°59'8 7.8
2016-Jun-24 21:33N 52°04' E 003°48'10 7.7
2016-Jun-24 20:14N 52°14' E 003°46'6 8.4
2016-Jun-24 19:33N 52°20' E 003°48'8 8.4
2016-Jun-24 18:34N 52°28' E 003°50'8 8.0
2016-Jun-24 17:33N 52°35' E 003°53'8 7.6
2016-Jun-24 16:32N 52°43' E 003°56'8 8.5
2016-Jun-24 15:32N 52°51' E 003°58'42 9.4
2016-Jun-24 11:03N 53°27' E 004°36'8 9.1
2016-Jun-24 10:13N 53°34' E 004°38'16 8.5
2016-Jun-24 08:22N 53°49' E 004°47'10 8.7
2016-Jun-24 07:11N 53°58' E 004°54'8 8.8
2016-Jun-24 06:20N 54°05' E 004°58'214 9.4
2016-Jun-23 07:31N 57°40' E 005°16'26 8.5
2016-Jun-23 04:29N 58°05' E 005°19'10 9.3
2016-Jun-23 03:28N 58°15' E 005°21'9 9.7
2016-Jun-23 02:32N 58°24' E 005°22'9 9.6
2016-Jun-23 01:34N 58°33' E 005°23'9 9.5
2016-Jun-23 00:33N 58°43' E 005°24'9 9.4
2016-Jun-22 23:34N 58°52' E 005°20'9 9.1
2016-Jun-22 22:33N 59°01' E 005°19'9 8.7
2016-Jun-22 21:34N 59°10' E 005°20'9 8.7
2016-Jun-22 20:33N 59°18' E 005°20'10 0.3
2016-Jun-21 15:04N 59°28' E 005°13'510.1
2016-Jun-21 14:33N 59°33' E 005°13'10 9.7
2016-Jun-21 13:33N 59°41' E 005°23'10 9.6
2016-Jun-21 12:28N 59°51' E 005°16'141 3.1
2016-Jun-19 15:18N 62°12' E 005°05'7 8.4
2016-Jun-19 14:31N 62°05' E 005°07'8 8.8
2016-Jun-19 13:34N 61°57' E 005°08'125 7.2
2016-Jun-18 20:13N 59°52' E 005°33'5 7.9
2016-Jun-18 19:33N 59°47' E 005°34'9 9.4
2016-Jun-18 18:33N 59°40' E 005°22'9 8.2
2016-Jun-18 17:24N 59°32' E 005°13'14 7.2
2016-Jun-18 15:26N 59°18' E 005°20'6 7.4
2016-Jun-18 14:34N 59°12' E 005°21'7 7.3
2016-Jun-18 13:34N 59°06' E 005°31'8 7.8
2016-Jun-18 12:34N 58°60' E 005°40'0 0.0
2016-Jun-18 11:33N 58°60' E 005°40'0 0.0
2016-Jun-18 10:33N 58°60' E 005°40'0 0.0
2016-Jun-18 09:33N 58°60' E 005°40'0 0.0
2016-Jun-18 08:33N 58°60' E 005°40'0 0.0
2016-Jun-18 07:31N 58°60' E 005°40'0 0.0
2016-Jun-18 06:32N 58°60' E 005°40'0 0.0
2016-Jun-18 05:32N 58°60' E 005°40'0 0.5
2016-Jun-18 04:34N 59°00' E 005°40'0 0.2
2016-Jun-18 03:33N 59°00' E 005°40'1 1.0
2016-Jun-18 02:34N 59°00' E 005°42'2 2.4
2016-Jun-18 01:34N 59°01' E 005°38'2 2.1
2016-Jun-18 00:34N 59°00' E 005°42'1 0.5
2016-Jun-17 23:34N 59°00' E 005°41'8 7.7
2016-Jun-17 22:33N 59°06' E 005°30'9 9.4
2016-Jun-17 21:34N 59°14' E 005°20'3 0.6
2016-Jun-17 16:09N 59°17' E 005°19'0 0.0
2016-Jun-17 15:24N 59°17' E 005°19'0 0.0
2016-Jun-17 09:33N 59°17' E 005°19'0 0.0
2016-Jun-16 20:33N 59°17' E 005°19'1010.2
2016-Jun-16 19:34N 59°07' E 005°21'1010.2
2016-Jun-16 18:34N 59°01' E 005°06'1010.0
2016-Jun-16 17:33N 58°56' E 004°48'10 9.6
2016-Jun-16 16:33N 58°52' E 004°31'57 9.4
2016-Jun-16 10:33N 58°26' E 002°55'10 9.7
2016-Jun-16 09:33N 58°22' E 002°38'10 9.6
2016-Jun-16 08:33N 58°17' E 002°22'10 9.6
2016-Jun-16 07:33N 58°13' E 002°06'9 9.5
2016-Jun-16 06:34N 58°08' E 001°50'10 9.5
2016-Jun-16 05:33N 58°04' E 001°34'9 9.5
2016-Jun-16 04:33N 58°01' E 001°17'9 9.1
2016-Jun-16 03:33N 57°57' E 001°01'110 8.4
2016-Jun-15 14:25N 57°09' W 002°03'  
Track history (hours):
 
Tides and Currents Weather Stations Pressure Air Temp Water Temp Dewpoint Dewpoint Depression Visibility Wind Speed Wind Dir Waves Ship Positions

Dart

Last reported at 2016-Jun-25 13:32 UTC. Time now 2016-Jun-25 14:20 UTC.
Position N 51°42' E 004°36'.

Length 66 m; draft 3.8 m.

Type: Tanker. MMSI: 219416000.

Date/timePositionNaut miles runAvg speedWind from/ knotsBaromVisibWave heightAir tempDewpointWater temp
2016-Jun-25 13:32N 51°42' E 004°36'0 0.0
2016-Jun-25 12:29N 51°42' E 004°36'0 0.0
2016-Jun-25 11:32N 51°42' E 004°36'0 0.0
2016-Jun-25 10:32N 51°42' E 004°36'0 0.0
2016-Jun-25 09:32N 51°42' E 004°36'0 0.0
2016-Jun-25 08:29N 51°42' E 004°36'0 0.0
2016-Jun-25 07:32N 51°42' E 004°36'0 0.0
2016-Jun-25 06:32N 51°42' E 004°36'0 0.0
2016-Jun-25 05:32N 51°42' E 004°36'0 0.0
2016-Jun-25 04:32N 51°42' E 004°36'0 0.0
2016-Jun-25 03:32N 51°42' E 004°36'4 4.4
2016-Jun-25 02:33N 51°46' E 004°38'7 6.5
2016-Jun-25 01:34N 51°50' E 004°30'7 6.8
2016-Jun-25 00:33N 51°53' E 004°19'8 7.6
2016-Jun-24 23:34N 51°57' E 004°10'7 7.1
2016-Jun-24 22:33N 52°00' E 003°59'8 7.8
2016-Jun-24 21:33N 52°04' E 003°48'10 7.7
2016-Jun-24 20:14N 52°14' E 003°46'6 8.4
2016-Jun-24 19:33N 52°20' E 003°48'8 8.4
2016-Jun-24 18:34N 52°28' E 003°50'8 8.0
2016-Jun-24 17:33N 52°35' E 003°53'8 7.6
2016-Jun-24 16:32N 52°43' E 003°56'8 8.5
2016-Jun-24 15:32N 52°51' E 003°58'42 9.4
2016-Jun-24 11:03N 53°27' E 004°36'8 9.1
2016-Jun-24 10:13N 53°34' E 004°38'16 8.5
2016-Jun-24 08:22N 53°49' E 004°47'10 8.7
2016-Jun-24 07:11N 53°58' E 004°54'8 8.8
2016-Jun-24 06:20N 54°05' E 004°58'214 9.4
2016-Jun-23 07:31N 57°40' E 005°16'26 8.5
2016-Jun-23 04:29N 58°05' E 005°19'10 9.3
2016-Jun-23 03:28N 58°15' E 005°21'9 9.7
2016-Jun-23 02:32N 58°24' E 005°22'9 9.6
2016-Jun-23 01:34N 58°33' E 005°23'9 9.5
2016-Jun-23 00:33N 58°43' E 005°24'9 9.4
2016-Jun-22 23:34N 58°52' E 005°20'9 9.1
2016-Jun-22 22:33N 59°01' E 005°19'9 8.7
2016-Jun-22 21:34N 59°10' E 005°20'9 8.7
2016-Jun-22 20:33N 59°18' E 005°20'10 0.3
2016-Jun-21 15:04N 59°28' E 005°13'510.1
2016-Jun-21 14:33N 59°33' E 005°13'10 9.7
2016-Jun-21 13:33N 59°41' E 005°23'10 9.6
2016-Jun-21 12:28N 59°51' E 005°16'141 3.1
2016-Jun-19 15:18N 62°12' E 005°05'7 8.4
2016-Jun-19 14:31N 62°05' E 005°07'8 8.8
2016-Jun-19 13:34N 61°57' E 005°08'125 7.2
2016-Jun-18 20:13N 59°52' E 005°33'5 7.9
2016-Jun-18 19:33N 59°47' E 005°34'9 9.4
2016-Jun-18 18:33N 59°40' E 005°22'9 8.2
2016-Jun-18 17:24N 59°32' E 005°13'14 7.2
2016-Jun-18 15:26N 59°18' E 005°20'6 7.4
2016-Jun-18 14:34N 59°12' E 005°21'7 7.3
2016-Jun-18 13:34N 59°06' E 005°31'8 7.8
2016-Jun-18 12:34N 58°60' E 005°40'0 0.0
2016-Jun-18 11:33N 58°60' E 005°40'0 0.0
2016-Jun-18 10:33N 58°60' E 005°40'0 0.0
2016-Jun-18 09:33N 58°60' E 005°40'0 0.0
2016-Jun-18 08:33N 58°60' E 005°40'0 0.0
2016-Jun-18 07:31N 58°60' E 005°40'0 0.0
2016-Jun-18 06:32N 58°60' E 005°40'0 0.0
2016-Jun-18 05:32N 58°60' E 005°40'0 0.5
2016-Jun-18 04:34N 59°00' E 005°40'0 0.2
2016-Jun-18 03:33N 59°00' E 005°40'1 1.0
2016-Jun-18 02:34N 59°00' E 005°42'2 2.4
2016-Jun-18 01:34N 59°01' E 005°38'2 2.1
2016-Jun-18 00:34N 59°00' E 005°42'1 0.5
2016-Jun-17 23:34N 59°00' E 005°41'8 7.7
2016-Jun-17 22:33N 59°06' E 005°30'9 9.4
2016-Jun-17 21:34N 59°14' E 005°20'3 0.6
2016-Jun-17 16:09N 59°17' E 005°19'0 0.0
2016-Jun-17 15:24N 59°17' E 005°19'0 0.0
2016-Jun-17 09:33N 59°17' E 005°19'0 0.0
2016-Jun-16 20:33N 59°17' E 005°19'1010.2
2016-Jun-16 19:34N 59°07' E 005°21'1010.2
2016-Jun-16 18:34N 59°01' E 005°06'1010.0
2016-Jun-16 17:33N 58°56' E 004°48'10 9.6
2016-Jun-16 16:33N 58°52' E 004°31'57 9.4
2016-Jun-16 10:33N 58°26' E 002°55'10 9.7
2016-Jun-16 09:33N 58°22' E 002°38'10 9.6
2016-Jun-16 08:33N 58°17' E 002°22'10 9.6
2016-Jun-16 07:33N 58°13' E 002°06'9 9.5
2016-Jun-16 06:34N 58°08' E 001°50'10 9.5
2016-Jun-16 05:33N 58°04' E 001°34'9 9.5
2016-Jun-16 04:33N 58°01' E 001°17'9 9.1
2016-Jun-16 03:33N 57°57' E 001°01'110 8.4
2016-Jun-15 14:25N 57°09' W 002°03'  

Dump ship's entire track history